Anthony, New Mexico
Current Conditions -  °F | °C
As of 2:58 AM on Sunday 26 Oct 2014 (Local Time) from KBIF Reporting Station
Clear Clear  
Wind Chill: 62°   Ceiling: Unl
Heat Index: 62°   Visibility: 10mi
Dew Point: 46°   Wind: 5mph
Humidity: 57%   Direction: 160°SSE
Pressure: 30.1"   Gusts: NA
Location:  32°N, 106.6°W
Report Text: KBIF 260858Z AUTO 16004KT 10SM CLR 17/08 A3010 RMK AO2 SLP134 T01650079 57009 $
Loading
Personal Weather Stations






























Interactive Weather Map New forecast layout! Learn more

10-Day Weather Forecast

Advertisements
Track Severe Weather on mobile